createdAt,value
2023-02-01T00:13:04.866Z,101186.33
2023-02-01T00:27:55.214Z,101157.36
2023-02-01T00:42:45.569Z,101152.51
2023-02-01T00:57:36.986Z,101116.55
2023-02-01T01:12:26.640Z,101116.15
2023-02-01T01:27:16.965Z,101127.98
2023-02-01T01:42:08.221Z,101126.66
2023-02-01T01:57:00.397Z,101111.73
2023-02-01T02:11:51.416Z,101096.80
2023-02-01T02:27:09.300Z,101070.09
2023-02-01T02:42:34.076Z,101078.86
2023-02-01T02:57:51.668Z,101099.88
2023-02-01T03:12:58.397Z,101077.07
2023-02-01T03:27:53.933Z,101061.30
2023-02-01T03:42:43.620Z,101055.19
2023-02-01T03:57:34.037Z,101061.28
2023-02-01T04:12:23.717Z,101075.69
2023-02-01T04:27:13.880Z,101072.66
2023-02-01T04:42:05.111Z,101051.19
2023-02-01T04:56:54.904Z,101071.41
2023-02-01T05:12:04.305Z,101068.33
2023-02-01T05:26:58.288Z,101084.60
2023-02-01T05:41:48.290Z,101088.13
2023-02-01T05:56:38.531Z,101058.27
2023-02-01T06:11:33.062Z,101045.53
2023-02-01T06:26:19.867Z,101043.23
2023-02-01T06:41:10.061Z,101054.52
2023-02-01T06:56:00.272Z,101073.77
2023-02-01T07:10:50.567Z,101090.12
2023-02-01T07:25:40.789Z,101110.81
2023-02-01T07:40:30.560Z,101100.34
2023-02-01T07:55:20.958Z,101092.84
2023-02-01T08:10:12.039Z,101093.69
2023-02-01T08:25:02.097Z,101140.91
2023-02-01T08:39:52.851Z,101143.13
2023-02-01T09:11:02.783Z,101171.91
2023-02-01T09:25:51.369Z,101161.63
2023-02-01T09:40:41.838Z,101170.73
2023-02-01T09:55:46.823Z,101182.61
2023-02-01T10:10:42.154Z,101219.78
2023-02-01T10:25:51.622Z,101230.59
2023-02-01T10:40:48.269Z,101217.30
2023-02-01T10:55:46.129Z,101225.52
2023-02-01T11:10:42.647Z,101206.20
2023-02-01T11:25:35.489Z,101157.80
2023-02-01T11:40:37.495Z,101148.13
2023-02-01T11:55:52.239Z,101134.44
2023-02-01T12:10:54.121Z,101139.71
2023-02-01T12:26:25.495Z,101124.20
2023-02-01T12:41:43.930Z,101108.80
2023-02-01T12:56:42.303Z,101111.32
2023-02-01T13:11:36.074Z,101082.36
2023-02-01T13:26:26.761Z,101066.28
2023-02-01T13:41:17.419Z,101043.23
2023-02-01T13:56:16.539Z,101038.38
2023-02-01T14:11:34.078Z,101049.62
2023-02-01T14:26:36.093Z,101057.91
2023-02-01T14:41:35.596Z,101059.64
2023-02-01T14:56:28.462Z,101058.84
2023-02-01T15:11:18.757Z,101064.80
2023-02-01T15:26:09.375Z,101058.30
2023-02-01T15:41:01.356Z,101073.80
2023-02-01T15:55:54.353Z,101074.41
2023-02-01T16:10:47.023Z,101068.41
2023-02-01T16:25:37.278Z,101058.85
2023-02-01T16:40:26.894Z,101091.91
2023-02-01T16:55:17.862Z,101113.83
2023-02-01T17:10:08.862Z,101110.28
2023-02-01T17:24:59.195Z,101128.35
2023-02-01T17:39:54.732Z,101116.56
2023-02-01T17:54:49.992Z,101125.83
2023-02-01T18:09:40.726Z,101132.45
2023-02-01T18:24:31.256Z,101139.05
2023-02-01T18:39:21.691Z,101128.02
2023-02-01T19:09:02.841Z,101099.34
2023-02-01T19:23:54.088Z,101104.19
2023-02-01T19:53:50.038Z,101125.88
2023-02-01T20:08:39.054Z,101139.11
2023-02-01T20:23:34.294Z,101157.96
2023-02-01T20:38:20.817Z,101179.52
2023-02-01T20:53:14.660Z,101186.44
2023-02-01T21:08:02.940Z,101180.20
2023-02-01T21:22:54.522Z,101175.77
2023-02-01T21:37:45.671Z,101186.33
2023-02-01T21:52:36.722Z,101163.84
2023-02-01T22:07:28.094Z,101156.97
2023-02-01T22:22:19.062Z,101164.88
2023-02-01T22:37:12.380Z,101170.17
2023-02-01T22:52:01.348Z,101178.60
2023-02-01T23:06:54.410Z,101180.36
2023-02-01T23:21:47.928Z,101182.15
2023-02-01T23:36:38.311Z,101160.58
2023-02-01T23:51:28.341Z,101167.77
